logo
Search for airport 
image banner adimage banner adimage banner ad
image banner ad

FACG - Caledon

Located in , South Africa

ICAO - , IATA -

Data provided by Airmate  

General information

Coordinates: S34°15'34" E19°24'58"
Elevation is 938 feet MSL.
 
View others Airports in Western Cape

Operational data

Special qualification required
Current time UTC:
Current local time:
Weather at : - ( 0 km )
METAR: PASM 181108Z AUTO 31013KT 3SM -SN BR OVC006 M05/M06 A2990 RMK AO2 P0000 FZRANO
View NOTAMs / SUP AIP / TFR affecting this airport [VIEW]
Communications frequencies: [VIEW]

Runways:

RWY identifierQFULength (ft)Width (ft)SurfaceLDA (ft)
0770°2723164SAND
25250°2723164SAND
13110°2625115SAND
31290°2625115SAND

Airport contact information

Address: South Africa

Satellite view of FACG